createdAt,value
2023-05-15T00:00:54.842Z,7.50
2023-05-15T00:03:22.703Z,7.50
2023-05-15T00:05:53.072Z,7.40
2023-05-15T00:08:20.693Z,7.40
2023-05-15T00:11:00.142Z,7.30
2023-05-15T00:13:28.732Z,7.20
2023-05-15T00:15:56.384Z,7.20
2023-05-15T00:18:23.852Z,7.20
2023-05-15T00:20:53.610Z,7.20
2023-05-15T00:23:21.021Z,7.10
2023-05-15T00:25:48.546Z,7.10
2023-05-15T00:28:16.347Z,7.00
2023-05-15T00:30:43.795Z,7.00
2023-05-15T00:33:11.191Z,6.90
2023-05-15T00:35:39.003Z,6.90
2023-05-15T00:38:06.481Z,6.80
2023-05-15T00:40:35.856Z,6.80
2023-05-15T00:43:04.467Z,6.70
2023-05-15T00:45:32.515Z,6.70
2023-05-15T00:48:01.842Z,6.60
2023-05-15T00:50:32.967Z,6.60
2023-05-15T00:53:01.961Z,6.60
2023-05-15T00:55:30.151Z,6.60
2023-05-15T00:57:58.552Z,6.60
2023-05-15T01:00:27.089Z,6.50
2023-05-15T01:02:55.737Z,6.50
2023-05-15T01:05:23.644Z,6.40
2023-05-15T01:08:07.208Z,6.50
2023-05-15T01:10:36.129Z,6.50
2023-05-15T01:13:04.654Z,6.50
2023-05-15T01:15:32.918Z,6.50
2023-05-15T01:18:00.422Z,6.50
2023-05-15T01:20:28.376Z,6.50
2023-05-15T01:23:05.968Z,6.50
2023-05-15T01:26:03.111Z,6.40
2023-05-15T01:28:41.426Z,6.50
2023-05-15T01:31:19.373Z,6.60
2023-05-15T01:33:51.895Z,6.70
2023-05-15T01:36:27.275Z,6.60
2023-05-15T01:39:04.402Z,6.50
2023-05-15T01:41:46.831Z,6.50
2023-05-15T01:44:29.612Z,6.50
2023-05-15T01:47:08.071Z,6.50
2023-05-15T01:49:37.364Z,6.50
2023-05-15T01:52:28.061Z,6.40
2023-05-15T01:54:56.151Z,6.40
2023-05-15T01:57:24.931Z,6.40
2023-05-15T01:59:53.292Z,6.50
2023-05-15T02:02:22.259Z,6.50
2023-05-15T02:04:50.984Z,6.50
2023-05-15T02:07:18.896Z,6.60
2023-05-15T02:09:48.920Z,6.60
2023-05-15T02:12:16.620Z,6.60
2023-05-15T02:14:45.894Z,6.60
2023-05-15T02:17:13.519Z,6.60
2023-05-15T02:19:41.323Z,6.50
2023-05-15T02:22:09.357Z,6.50
2023-05-15T02:24:37.140Z,6.50
2023-05-15T02:27:27.282Z,6.40
2023-05-15T02:30:09.481Z,6.40
2023-05-15T02:33:08.226Z,6.40
2023-05-15T02:36:11.753Z,6.40
2023-05-15T02:38:48.693Z,6.30
2023-05-15T02:41:17.846Z,6.30
2023-05-15T02:43:49.346Z,6.30
2023-05-15T02:46:18.054Z,6.30
2023-05-15T02:48:47.700Z,6.40
2023-05-15T02:51:15.345Z,6.40
2023-05-15T02:53:43.669Z,6.40
2023-05-15T02:56:11.190Z,6.50
2023-05-15T02:58:42.029Z,6.60
2023-05-15T03:01:09.693Z,6.70
2023-05-15T03:03:37.220Z,6.70
2023-05-15T03:06:05.095Z,6.70
2023-05-15T03:08:32.891Z,6.80
2023-05-15T03:11:00.388Z,7.00
2023-05-15T03:13:27.986Z,7.10
2023-05-15T03:15:55.702Z,7.20
2023-05-15T03:18:23.326Z,7.30
2023-05-15T03:20:52.998Z,7.30
2023-05-15T03:23:21.854Z,7.30
2023-05-15T03:25:49.430Z,7.40
2023-05-15T03:28:16.929Z,7.50
2023-05-15T03:30:45.452Z,7.50
2023-05-15T03:33:13.143Z,7.60
2023-05-15T03:35:40.654Z,7.60
2023-05-15T03:38:09.147Z,7.70
2023-05-15T03:40:42.352Z,7.70
2023-05-15T03:43:13.408Z,7.70
2023-05-15T03:45:41.594Z,7.90
2023-05-15T03:48:09.081Z,8.00
2023-05-15T03:50:36.648Z,8.00
2023-05-15T03:53:04.620Z,8.00
2023-05-15T03:55:32.157Z,8.20
2023-05-15T03:58:00.023Z,8.30
2023-05-15T04:00:27.940Z,8.40
2023-05-15T04:02:56.186Z,8.70
2023-05-15T04:05:24.054Z,9.20
2023-05-15T04:07:51.779Z,9.70
2023-05-15T04:10:19.768Z,10.10
2023-05-15T04:12:48.235Z,10.40
2023-05-15T04:15:24.374Z,10.50
2023-05-15T04:17:53.918Z,11.00
2023-05-15T04:20:23.508Z,11.30
2023-05-15T04:22:53.405Z,11.40
2023-05-15T04:25:21.793Z,11.50
2023-05-15T04:27:49.581Z,12.50
2023-05-15T04:30:17.921Z,13.10
2023-05-15T04:32:46.067Z,13.50
2023-05-15T04:35:15.400Z,13.90
2023-05-15T04:37:51.220Z,13.80
2023-05-15T04:40:20.092Z,14.20
2023-05-15T04:42:49.492Z,14.50
2023-05-15T04:45:17.156Z,14.70
2023-05-15T04:47:46.380Z,16.00
2023-05-15T04:50:14.131Z,17.10
2023-05-15T04:52:43.330Z,16.90
2023-05-15T04:55:11.008Z,16.60
2023-05-15T04:57:38.813Z,15.80
2023-05-15T05:00:17.564Z,15.60
2023-05-15T05:02:45.075Z,15.30
2023-05-15T05:05:14.914Z,15.60
2023-05-15T05:07:43.895Z,15.20
2023-05-15T05:10:11.630Z,16.00
2023-05-15T05:12:39.057Z,16.40
2023-05-15T05:15:19.146Z,16.20
2023-05-15T05:17:46.798Z,16.50
2023-05-15T05:20:14.305Z,16.00
2023-05-15T05:22:42.736Z,15.20
2023-05-15T05:25:13.014Z,15.80
2023-05-15T05:27:40.547Z,15.90
2023-05-15T05:30:09.093Z,15.20
2023-05-15T05:32:36.545Z,15.50
2023-05-15T05:35:04.405Z,16.30
2023-05-15T05:37:32.220Z,17.50
2023-05-15T05:39:59.740Z,20.70
2023-05-15T05:42:27.173Z,21.50
2023-05-15T05:44:54.737Z,21.60
2023-05-15T05:47:22.174Z,19.50
2023-05-15T05:49:49.645Z,18.70
2023-05-15T05:52:17.191Z,18.40
2023-05-15T05:54:46.605Z,17.60
2023-05-15T05:57:14.701Z,16.80
2023-05-15T05:59:42.450Z,17.20
2023-05-15T06:02:10.324Z,17.80
2023-05-15T06:04:40.484Z,17.70
2023-05-15T06:07:08.901Z,18.30
2023-05-15T06:09:36.424Z,18.70
2023-05-15T06:12:08.422Z,19.50
2023-05-15T06:14:37.371Z,21.30
2023-05-15T06:17:05.512Z,22.90
2023-05-15T06:19:35.529Z,23.60
2023-05-15T06:22:06.364Z,23.60
2023-05-15T06:24:34.662Z,23.20
2023-05-15T06:27:02.101Z,23.10
2023-05-15T06:29:29.705Z,21.90
2023-05-15T06:31:57.284Z,20.90
2023-05-15T06:34:24.770Z,20.10
2023-05-15T06:36:53.010Z,20.00
2023-05-15T06:39:20.364Z,19.40
2023-05-15T06:41:48.038Z,19.40
2023-05-15T06:44:15.543Z,19.20
2023-05-15T06:46:43.122Z,19.70
2023-05-15T06:49:10.874Z,21.00
2023-05-15T06:51:38.276Z,20.80
2023-05-15T06:54:06.659Z,21.70
2023-05-15T06:56:34.186Z,21.60
2023-05-15T06:59:01.772Z,21.30
2023-05-15T07:01:30.436Z,21.20
2023-05-15T07:03:58.165Z,22.50
2023-05-15T07:06:26.735Z,23.90
2023-05-15T07:08:54.152Z,26.70
2023-05-15T07:11:22.325Z,29.10
2023-05-15T07:13:50.811Z,29.60
2023-05-15T07:16:18.721Z,32.40
2023-05-15T07:19:06.187Z,33.80
2023-05-15T07:21:33.898Z,33.40
2023-05-15T07:24:01.853Z,34.10
2023-05-15T07:26:36.529Z,31.70
2023-05-15T07:29:08.659Z,32.70
2023-05-15T07:31:38.669Z,32.40
2023-05-15T07:34:06.134Z,30.80
2023-05-15T07:36:34.857Z,27.50
2023-05-15T07:39:03.065Z,25.10
2023-05-15T07:41:33.532Z,24.10
2023-05-15T07:44:01.221Z,23.80
2023-05-15T07:46:29.433Z,23.50
2023-05-15T07:48:56.902Z,23.70
2023-05-15T07:51:24.390Z,22.80
2023-05-15T07:53:52.053Z,23.50
2023-05-15T07:56:19.567Z,24.50
2023-05-15T07:58:47.213Z,25.30
2023-05-15T08:01:14.690Z,24.90
2023-05-15T08:03:42.238Z,25.60
2023-05-15T08:06:09.775Z,25.80
2023-05-15T08:08:37.233Z,25.70
2023-05-15T08:11:04.734Z,25.30
2023-05-15T08:13:32.281Z,24.60
2023-05-15T08:16:00.119Z,23.70
2023-05-15T08:18:27.564Z,23.40
2023-05-15T08:20:55.196Z,24.30
2023-05-15T08:23:22.642Z,24.50
2023-05-15T08:25:50.271Z,24.90
2023-05-15T08:28:17.691Z,24.70
2023-05-15T08:30:45.137Z,24.40
2023-05-15T08:33:12.570Z,24.20
2023-05-15T08:35:40.042Z,24.50
2023-05-15T08:38:07.533Z,24.90
2023-05-15T08:40:39.793Z,24.40
2023-05-15T08:43:19.006Z,24.00
2023-05-15T08:45:46.524Z,23.90
2023-05-15T08:48:20.676Z,23.40
2023-05-15T08:50:49.192Z,23.40
2023-05-15T08:53:16.960Z,23.30
2023-05-15T08:55:45.594Z,23.60
2023-05-15T08:58:13.781Z,24.60
2023-05-15T09:00:41.436Z,24.70
2023-05-15T09:03:17.801Z,24.80
2023-05-15T09:05:49.844Z,24.30
2023-05-15T09:08:19.420Z,23.90
2023-05-15T09:10:47.262Z,24.80
2023-05-15T09:13:15.665Z,24.50
2023-05-15T09:15:43.285Z,24.80
2023-05-15T09:18:11.754Z,25.30
2023-05-15T09:20:39.217Z,25.20
2023-05-15T09:23:25.296Z,25.50
2023-05-15T09:25:57.222Z,25.10
2023-05-15T09:28:33.090Z,25.50
2023-05-15T09:31:02.779Z,25.30
2023-05-15T09:33:35.364Z,25.80
2023-05-15T09:36:05.138Z,25.70
2023-05-15T09:38:43.644Z,25.20
2023-05-15T09:41:11.729Z,25.30
2023-05-15T09:43:42.109Z,25.90
2023-05-15T09:46:12.562Z,24.90
2023-05-15T09:48:40.436Z,25.10
2023-05-15T09:51:19.102Z,24.80
2023-05-15T09:53:52.269Z,24.00
2023-05-15T09:56:19.906Z,24.30
2023-05-15T09:58:58.930Z,24.70
2023-05-15T10:01:27.938Z,24.50
2023-05-15T10:04:05.168Z,24.70
2023-05-15T10:06:42.819Z,24.80
2023-05-15T10:09:11.514Z,24.70
2023-05-15T10:11:42.161Z,24.40
2023-05-15T10:14:11.823Z,24.50
2023-05-15T10:16:40.966Z,24.20
2023-05-15T10:19:11.024Z,23.50
2023-05-15T10:21:40.747Z,23.50
2023-05-15T10:24:09.224Z,23.00
2023-05-15T10:26:41.428Z,23.60
2023-05-15T10:29:13.315Z,24.40
2023-05-15T10:31:41.900Z,24.10
2023-05-15T10:34:11.072Z,24.20
2023-05-15T10:36:39.016Z,24.10
2023-05-15T10:39:07.767Z,24.00
2023-05-15T10:41:38.165Z,24.20
2023-05-15T10:44:05.933Z,24.00
2023-05-15T10:46:35.519Z,23.60
2023-05-15T10:49:03.317Z,23.60
2023-05-15T10:51:33.421Z,24.00
2023-05-15T10:54:04.171Z,23.70
2023-05-15T10:56:32.936Z,23.80
2023-05-15T10:59:10.274Z,23.90
2023-05-15T11:01:40.201Z,23.70
2023-05-15T11:04:34.311Z,23.20
2023-05-15T11:07:17.389Z,23.50
2023-05-15T11:09:45.327Z,23.90
2023-05-15T11:12:14.103Z,23.80
2023-05-15T11:14:56.980Z,23.10
2023-05-15T11:17:25.047Z,22.60
2023-05-15T11:19:52.592Z,22.40
2023-05-15T11:22:40.329Z,22.30
2023-05-15T11:25:16.203Z,22.20
2023-05-15T11:27:47.028Z,22.20
2023-05-15T11:30:18.524Z,22.30
2023-05-15T11:33:04.079Z,22.50
2023-05-15T11:35:57.649Z,22.10
2023-05-15T11:38:28.565Z,22.50
2023-05-15T11:40:59.359Z,22.30
2023-05-15T11:43:28.841Z,22.10
2023-05-15T11:46:03.427Z,22.10
2023-05-15T11:48:36.082Z,21.90
2023-05-15T11:51:06.030Z,22.10
2023-05-15T11:53:35.633Z,22.00
2023-05-15T11:56:03.948Z,21.80
2023-05-15T11:58:32.230Z,21.70
2023-05-15T12:00:59.996Z,21.70
2023-05-15T12:03:33.260Z,21.40
2023-05-15T12:06:03.236Z,21.50
2023-05-15T12:08:36.405Z,21.90
2023-05-15T12:11:05.140Z,22.00
2023-05-15T12:13:34.150Z,22.00
2023-05-15T12:16:03.864Z,22.20
2023-05-15T12:18:32.772Z,22.10
2023-05-15T12:21:06.105Z,22.40
2023-05-15T12:23:33.822Z,22.30
2023-05-15T12:26:03.565Z,21.90
2023-05-15T12:28:34.541Z,22.00
2023-05-15T12:31:02.348Z,21.40
2023-05-15T12:33:30.157Z,21.80
2023-05-15T12:36:01.160Z,22.10
2023-05-15T12:38:29.616Z,21.90
2023-05-15T12:40:57.907Z,21.80
2023-05-15T12:43:26.470Z,22.00
2023-05-15T12:45:58.057Z,21.60
2023-05-15T12:48:35.246Z,21.40
2023-05-15T12:51:09.310Z,21.40
2023-05-15T12:53:40.190Z,21.40
2023-05-15T12:56:10.040Z,21.60
2023-05-15T12:58:40.833Z,21.50
2023-05-15T13:01:08.698Z,22.10
2023-05-15T13:03:37.302Z,22.00
2023-05-15T13:06:07.894Z,21.90
2023-05-15T13:08:43.915Z,22.20
2023-05-15T13:11:14.428Z,22.00
2023-05-15T13:14:02.180Z,21.70
2023-05-15T13:16:33.314Z,21.40
2023-05-15T13:19:01.138Z,21.40
2023-05-15T13:21:30.087Z,21.80
2023-05-15T13:24:04.483Z,21.20
2023-05-15T13:26:32.333Z,21.30
2023-05-15T13:29:00.149Z,21.50
2023-05-15T13:31:30.231Z,21.50
2023-05-15T13:33:57.914Z,21.70
2023-05-15T13:36:25.370Z,21.50
2023-05-15T13:38:52.970Z,21.10
2023-05-15T13:41:21.442Z,20.90
2023-05-15T13:43:49.670Z,21.00
2023-05-15T13:46:17.266Z,21.20
2023-05-15T13:48:44.835Z,21.30
2023-05-15T13:51:12.367Z,21.60
2023-05-15T13:53:40.172Z,21.60
2023-05-15T13:56:08.027Z,21.50
2023-05-15T13:58:35.722Z,21.40
2023-05-15T14:01:07.391Z,21.20
2023-05-15T14:03:35.418Z,21.40
2023-05-15T14:06:12.679Z,21.40
2023-05-15T14:08:40.098Z,21.00
2023-05-15T14:11:07.835Z,20.90
2023-05-15T14:13:35.729Z,21.00
2023-05-15T14:16:03.760Z,21.30
2023-05-15T14:18:32.169Z,21.30
2023-05-15T14:20:59.803Z,21.50
2023-05-15T14:23:27.941Z,21.50
2023-05-15T14:25:55.827Z,21.50
2023-05-15T14:28:23.795Z,21.30
2023-05-15T14:30:51.448Z,21.10
2023-05-15T14:33:19.201Z,21.20
2023-05-15T14:35:46.917Z,21.20
2023-05-15T14:38:14.394Z,21.00
2023-05-15T14:40:43.438Z,21.20
2023-05-15T14:43:10.940Z,21.20
2023-05-15T14:45:38.385Z,21.00
2023-05-15T14:48:06.161Z,20.80
2023-05-15T14:50:34.156Z,20.80
2023-05-15T14:53:01.990Z,20.80
2023-05-15T14:55:29.506Z,20.80
2023-05-15T14:57:58.741Z,20.70
2023-05-15T15:00:26.927Z,20.60
2023-05-15T15:02:55.116Z,20.30
2023-05-15T15:05:23.029Z,20.40
2023-05-15T15:08:05.416Z,20.30
2023-05-15T15:10:35.108Z,20.40
2023-05-15T15:13:03.169Z,20.40
2023-05-15T15:15:32.533Z,20.60
2023-05-15T15:18:01.232Z,20.40
2023-05-15T15:20:28.912Z,20.60
2023-05-15T15:22:57.155Z,20.70
2023-05-15T15:25:25.302Z,20.60
2023-05-15T15:27:53.226Z,20.70
2023-05-15T15:30:24.438Z,20.60
2023-05-15T15:32:52.459Z,20.80
2023-05-15T15:35:20.360Z,20.60
2023-05-15T15:37:48.200Z,20.50
2023-05-15T15:40:18.059Z,20.50
2023-05-15T15:42:45.990Z,20.70
2023-05-15T15:45:13.477Z,20.60
2023-05-15T15:47:41.074Z,20.50
2023-05-15T15:50:08.959Z,20.20
2023-05-15T15:52:37.587Z,20.00
2023-05-15T15:55:05.482Z,19.70
2023-05-15T15:57:33.613Z,19.60
2023-05-15T16:00:01.356Z,19.40
2023-05-15T16:02:28.904Z,19.10
2023-05-15T16:04:56.848Z,19.00
2023-05-15T16:07:24.426Z,19.00
2023-05-15T16:10:00.511Z,19.10
2023-05-15T16:12:39.100Z,19.00
2023-05-15T16:15:21.043Z,19.10
2023-05-15T16:17:53.772Z,19.20
2023-05-15T16:20:22.299Z,19.20
2023-05-15T16:22:50.129Z,19.00
2023-05-15T16:25:17.842Z,19.00
2023-05-15T16:27:45.204Z,18.90
2023-05-15T16:30:13.318Z,18.80
2023-05-15T16:32:41.091Z,18.50
2023-05-15T16:35:09.118Z,18.50
2023-05-15T16:37:36.897Z,18.50
2023-05-15T16:40:05.044Z,18.50
2023-05-15T16:42:36.991Z,18.50
2023-05-15T16:45:05.974Z,18.50
2023-05-15T16:47:33.616Z,18.50
2023-05-15T16:50:04.705Z,18.50
2023-05-15T16:52:32.388Z,18.70
2023-05-15T16:55:00.109Z,18.50
2023-05-15T16:57:27.506Z,18.30
2023-05-15T16:59:55.150Z,18.20
2023-05-15T17:02:22.853Z,18.10
2023-05-15T17:04:53.685Z,17.90
2023-05-15T17:07:22.171Z,17.90
2023-05-15T17:09:49.808Z,17.70
2023-05-15T17:12:17.454Z,17.60
2023-05-15T17:14:45.028Z,17.70
2023-05-15T17:17:12.943Z,17.60
2023-05-15T17:19:42.585Z,17.40
2023-05-15T17:22:10.248Z,17.40
2023-05-15T17:24:50.198Z,17.30
2023-05-15T17:27:20.068Z,17.20
2023-05-15T17:29:48.396Z,17.20
2023-05-15T17:32:17.252Z,17.10
2023-05-15T17:34:45.704Z,17.00
2023-05-15T17:37:13.732Z,17.10
2023-05-15T17:39:41.358Z,17.10
2023-05-15T17:42:09.254Z,17.00
2023-05-15T17:44:36.821Z,16.90
2023-05-15T17:47:04.403Z,16.90
2023-05-15T17:49:34.581Z,16.80
2023-05-15T17:52:02.289Z,16.80
2023-05-15T17:54:29.786Z,16.70
2023-05-15T17:56:57.485Z,16.70
2023-05-15T17:59:25.174Z,16.60
2023-05-15T18:01:52.950Z,16.60
2023-05-15T18:04:20.868Z,16.60
2023-05-15T18:06:48.679Z,16.50
2023-05-15T18:09:23.887Z,16.50
2023-05-15T18:11:52.112Z,16.40
2023-05-15T18:14:19.644Z,16.60
2023-05-15T18:16:47.111Z,16.50
2023-05-15T18:19:14.849Z,16.50
2023-05-15T18:21:42.324Z,16.40
2023-05-15T18:24:09.854Z,16.40
2023-05-15T18:26:38.319Z,16.30
2023-05-15T18:29:06.090Z,16.30
2023-05-15T18:31:33.832Z,16.20
2023-05-15T18:34:02.051Z,16.30
2023-05-15T18:36:31.001Z,16.20
2023-05-15T18:38:58.945Z,16.20
2023-05-15T18:41:27.398Z,16.10
2023-05-15T18:43:55.934Z,16.00
2023-05-15T18:46:26.027Z,15.80
2023-05-15T18:48:53.725Z,15.80
2023-05-15T18:51:22.509Z,15.60
2023-05-15T18:53:50.262Z,15.50
2023-05-15T18:56:17.814Z,15.40
2023-05-15T18:58:48.740Z,15.40
2023-05-15T19:01:18.961Z,15.10
2023-05-15T19:03:48.103Z,14.80
2023-05-15T19:06:20.387Z,14.80
2023-05-15T19:08:49.024Z,14.60
2023-05-15T19:11:17.479Z,14.70
2023-05-15T19:13:45.025Z,14.50
2023-05-15T19:16:12.769Z,14.20
2023-05-15T19:18:40.447Z,14.00
2023-05-15T19:21:11.029Z,13.90
2023-05-15T19:23:38.488Z,13.60
2023-05-15T19:26:06.155Z,13.60
2023-05-15T19:28:33.764Z,13.50
2023-05-15T19:31:01.472Z,13.20
2023-05-15T19:33:36.262Z,13.10
2023-05-15T19:36:24.198Z,13.20
2023-05-15T19:38:52.176Z,13.00
2023-05-15T19:41:19.676Z,12.80
2023-05-15T19:43:50.848Z,12.60
2023-05-15T19:46:19.341Z,12.50
2023-05-15T19:48:47.260Z,12.40
2023-05-15T19:51:14.988Z,12.40
2023-05-15T19:53:42.805Z,12.30
2023-05-15T19:56:10.808Z,12.20
2023-05-15T19:58:38.606Z,12.00
2023-05-15T20:01:06.232Z,11.80
2023-05-15T20:03:34.336Z,11.90
2023-05-15T20:06:04.324Z,11.60
2023-05-15T20:08:31.947Z,11.50
2023-05-15T20:11:23.159Z,11.30
2023-05-15T20:13:50.694Z,11.10
2023-05-15T20:16:22.059Z,11.10
2023-05-15T20:18:55.550Z,11.00
2023-05-15T20:21:23.147Z,10.90
2023-05-15T20:23:51.441Z,11.00
2023-05-15T20:26:20.374Z,11.00
2023-05-15T20:28:47.998Z,10.80
2023-05-15T20:31:18.042Z,10.60
2023-05-15T20:33:45.881Z,10.50
2023-05-15T20:36:14.899Z,10.60
2023-05-15T20:38:45.253Z,10.60
2023-05-15T20:41:12.858Z,10.50
2023-05-15T20:43:40.322Z,10.30
2023-05-15T20:46:11.357Z,10.10
2023-05-15T20:48:38.817Z,9.90
2023-05-15T20:51:06.357Z,10.00
2023-05-15T20:53:34.019Z,9.90
2023-05-15T20:56:01.527Z,9.90
2023-05-15T20:58:29.036Z,9.80
2023-05-15T21:00:58.440Z,9.70
2023-05-15T21:03:25.986Z,9.50
2023-05-15T21:05:56.054Z,9.40
2023-05-15T21:08:24.527Z,9.30
2023-05-15T21:10:55.764Z,9.20
2023-05-15T21:13:23.305Z,9.10
2023-05-15T21:15:51.056Z,9.00
2023-05-15T21:18:19.280Z,9.00
2023-05-15T21:20:48.007Z,9.00
2023-05-15T21:23:16.628Z,8.90
2023-05-15T21:25:45.056Z,9.00
2023-05-15T21:28:13.343Z,8.90
2023-05-15T21:30:43.605Z,8.90
2023-05-15T21:33:11.609Z,8.90
2023-05-15T21:35:40.039Z,8.80
2023-05-15T21:38:13.128Z,8.90
2023-05-15T21:40:40.674Z,8.80
2023-05-15T21:43:09.615Z,8.70
2023-05-15T21:45:37.247Z,8.80
2023-05-15T21:48:24.599Z,8.70
2023-05-15T21:50:56.717Z,8.60
2023-05-15T21:53:27.165Z,8.50
2023-05-15T21:55:59.477Z,8.50
2023-05-15T21:58:27.468Z,8.40
2023-05-15T22:00:57.837Z,8.40
2023-05-15T22:03:25.608Z,8.40
2023-05-15T22:05:53.530Z,8.40
2023-05-15T22:08:21.869Z,8.40
2023-05-15T22:10:49.746Z,8.30
2023-05-15T22:13:36.322Z,8.40
2023-05-15T22:16:04.147Z,8.30
2023-05-15T22:18:45.111Z,8.30
2023-05-15T22:21:13.521Z,8.30
2023-05-15T22:23:41.276Z,8.30
2023-05-15T22:26:08.804Z,8.10
2023-05-15T22:28:36.297Z,8.00
2023-05-15T22:31:04.877Z,8.00
2023-05-15T22:33:32.451Z,8.10
2023-05-15T22:35:59.896Z,8.00
2023-05-15T22:38:27.850Z,7.90
2023-05-15T22:40:55.381Z,7.90
2023-05-15T22:43:23.177Z,7.90
2023-05-15T22:45:50.955Z,7.90
2023-05-15T22:48:18.648Z,7.80
2023-05-15T22:50:46.117Z,7.70
2023-05-15T22:53:13.952Z,7.70
2023-05-15T22:55:42.059Z,7.70
2023-05-15T22:58:12.435Z,7.70
2023-05-15T23:00:39.811Z,7.80
2023-05-15T23:03:07.821Z,7.80
2023-05-15T23:05:35.339Z,7.90
2023-05-15T23:08:02.862Z,7.80
2023-05-15T23:10:30.334Z,7.80
2023-05-15T23:12:57.868Z,7.80
2023-05-15T23:15:25.445Z,7.70
2023-05-15T23:17:53.123Z,7.70
2023-05-15T23:20:20.838Z,7.60
2023-05-15T23:22:48.265Z,7.60
2023-05-15T23:25:16.561Z,7.70
2023-05-15T23:27:43.921Z,7.70
2023-05-15T23:30:11.592Z,7.60
2023-05-15T23:32:39.029Z,7.70
2023-05-15T23:35:06.982Z,7.50
2023-05-15T23:37:34.592Z,7.40
2023-05-15T23:40:02.086Z,7.40
2023-05-15T23:42:30.724Z,7.50
2023-05-15T23:44:58.063Z,7.50
2023-05-15T23:47:25.715Z,7.50
2023-05-15T23:49:53.282Z,7.40
2023-05-15T23:52:20.956Z,7.40
2023-05-15T23:54:48.484Z,7.40
2023-05-15T23:57:15.959Z,7.30
2023-05-15T23:59:43.334Z,7.20
